French Corral, California
Current Conditions -  °F | °C
As of 1:58 PM on Saturday 25 Oct 2014 (Local Time) from KBAB Reporting Station
Scattered Clouds Scattered Clouds  
Wind Chill: 68°   Ceiling: Unl
Heat Index: 68°   Visibility: 10mi
Dew Point: 54°   Wind: 18mph
Humidity: 61%   Direction: 160°SSE
Pressure: 30.01"   Gusts: 25mph
Location:  39.1816°N, 121.266°W
Report Text: KBAB 252058Z 16016G22KT 10SM FEW032 SCT055 20/12 A3001 RMK AO2A PK WND 14028/48 SLP238 T02010123 50001 $
Loading
Personal Weather Stations






























Interactive Weather Map
Tropical Storm Tracking
New forecast layout! Learn more

10-Day Weather Forecast

Advertisements
Track Severe Weather on mobile